sensor_id;sensor_type;location;lat;lon;timestamp;temperature;humidity
47310;DHT22;33046;52.270;6.832;2023-04-24T00:01:08;14.10;99.70
47310;DHT22;33046;52.270;6.832;2023-04-24T00:03:15;14.10;99.40
47310;DHT22;33046;52.270;6.832;2023-04-24T00:05:23;14.10;99.50
47310;DHT22;33046;52.270;6.832;2023-04-24T00:07:29;14.00;99.30
47310;DHT22;33046;52.270;6.832;2023-04-24T00:09:37;14.10;99.30
47310;DHT22;33046;52.270;6.832;2023-04-24T00:11:44;14.10;99.20
47310;DHT22;33046;52.270;6.832;2023-04-24T00:13:51;14.10;99.20
47310;DHT22;33046;52.270;6.832;2023-04-24T00:15:58;14.00;99.10
47310;DHT22;33046;52.270;6.832;2023-04-24T00:18:05;14.10;99.30
47310;DHT22;33046;52.270;6.832;2023-04-24T00:20:11;14.10;99.20
47310;DHT22;33046;52.270;6.832;2023-04-24T00:22:18;14.10;99.20
47310;DHT22;33046;52.270;6.832;2023-04-24T00:24:25;14.00;98.90
47310;DHT22;33046;52.270;6.832;2023-04-24T00:26:33;14.00;98.90
47310;DHT22;33046;52.270;6.832;2023-04-24T00:28:40;14.00;99.20
47310;DHT22;33046;52.270;6.832;2023-04-24T00:30:47;13.90;99.30
47310;DHT22;33046;52.270;6.832;2023-04-24T00:32:53;14.00;99.40
47310;DHT22;33046;52.270;6.832;2023-04-24T00:35:03;14.00;99.30
47310;DHT22;33046;52.270;6.832;2023-04-24T00:37:10;14.00;99.40
47310;DHT22;33046;52.270;6.832;2023-04-24T00:39:17;14.00;99.50
47310;DHT22;33046;52.270;6.832;2023-04-24T00:41:24;14.00;99.40
47310;DHT22;33046;52.270;6.832;2023-04-24T00:43:34;14.00;99.50
47310;DHT22;33046;52.270;6.832;2023-04-24T00:45:41;14.00;99.60
47310;DHT22;33046;52.270;6.832;2023-04-24T00:47:48;14.00;99.60
47310;DHT22;33046;52.270;6.832;2023-04-24T00:49:55;14.00;99.80
47310;DHT22;33046;52.270;6.832;2023-04-24T00:52:02;14.00;99.80
47310;DHT22;33046;52.270;6.832;2023-04-24T00:54:08;14.00;99.80
47310;DHT22;33046;52.270;6.832;2023-04-24T00:56:15;14.00;99.60
47310;DHT22;33046;52.270;6.832;2023-04-24T00:58:22;14.00;99.80
47310;DHT22;33046;52.270;6.832;2023-04-24T01:00:31;14.00;99.80
47310;DHT22;33046;52.270;6.832;2023-04-24T01:02:38;14.00;99.80
47310;DHT22;33046;52.270;6.832;2023-04-24T01:04:45;13.90;99.80
47310;DHT22;33046;52.270;6.832;2023-04-24T01:06:53;14.00;99.70
47310;DHT22;33046;52.270;6.832;2023-04-24T01:09:01;13.90;99.80
47310;DHT22;33046;52.270;6.832;2023-04-24T01:11:09;13.90;99.70
47310;DHT22;33046;52.270;6.832;2023-04-24T01:13:16;13.90;99.70
47310;DHT22;33046;52.270;6.832;2023-04-24T01:15:24;14.00;99.80
47310;DHT22;33046;52.270;6.832;2023-04-24T01:17:32;14.00;99.90
47310;DHT22;33046;52.270;6.832;2023-04-24T01:19:39;13.90;99.90
47310;DHT22;33046;52.270;6.832;2023-04-24T01:21:47;13.90;99.90
47310;DHT22;33046;52.270;6.832;2023-04-24T01:23:58;13.90;99.90
47310;DHT22;33046;52.270;6.832;2023-04-24T01:26:05;13.90;99.90
47310;DHT22;33046;52.270;6.832;2023-04-24T01:28:12;13.90;99.90
47310;DHT22;33046;52.270;6.832;2023-04-24T01:30:19;13.90;99.90
47310;DHT22;33046;52.270;6.832;2023-04-24T01:32:26;13.80;99.90
47310;DHT22;33046;52.270;6.832;2023-04-24T01:34:33;13.90;99.90
47310;DHT22;33046;52.270;6.832;2023-04-24T01:36:41;13.80;99.90
47310;DHT22;33046;52.270;6.832;2023-04-24T01:38:49;13.80;99.90
47310;DHT22;33046;52.270;6.832;2023-04-24T01:40:57;13.80;99.90
47310;DHT22;33046;52.270;6.832;2023-04-24T01:43:04;13.80;99.90
47310;DHT22;33046;52.270;6.832;2023-04-24T01:45:12;13.80;99.90
47310;DHT22;33046;52.270;6.832;2023-04-24T01:47:18;13.80;99.90
47310;DHT22;33046;52.270;6.832;2023-04-24T01:49:25;13.70;99.90
47310;DHT22;33046;52.270;6.832;2023-04-24T01:51:32;13.70;99.90
47310;DHT22;33046;52.270;6.832;2023-04-24T01:53:39;13.70;99.90
47310;DHT22;33046;52.270;6.832;2023-04-24T01:55:46;13.70;99.90
47310;DHT22;33046;52.270;6.832;2023-04-24T01:57:55;13.70;99.90
47310;DHT22;33046;52.270;6.832;2023-04-24T02:00:03;13.70;99.90
47310;DHT22;33046;52.270;6.832;2023-04-24T02:02:18;13.70;99.90
47310;DHT22;33046;52.270;6.832;2023-04-24T02:04:25;13.60;99.90
47310;DHT22;33046;52.270;6.832;2023-04-24T02:06:32;13.60;99.90
47310;DHT22;33046;52.270;6.832;2023-04-24T02:08:40;13.70;99.90
47310;DHT22;33046;52.270;6.832;2023-04-24T02:10:47;13.60;99.90
47310;DHT22;33046;52.270;6.832;2023-04-24T02:12:55;13.60;99.90
47310;DHT22;33046;52.270;6.832;2023-04-24T02:15:04;13.70;99.90
47310;DHT22;33046;52.270;6.832;2023-04-24T02:17:11;13.60;99.90
47310;DHT22;33046;52.270;6.832;2023-04-24T02:19:18;13.60;99.90
47310;DHT22;33046;52.270;6.832;2023-04-24T02:21:25;13.60;99.90
47310;DHT22;33046;52.270;6.832;2023-04-24T02:23:32;13.60;99.90
47310;DHT22;33046;52.270;6.832;2023-04-24T02:25:38;13.60;99.90
47310;DHT22;33046;52.270;6.832;2023-04-24T02:27:45;13.60;99.90
47310;DHT22;33046;52.270;6.832;2023-04-24T02:29:53;13.60;99.90
47310;DHT22;33046;52.270;6.832;2023-04-24T02:32:00;13.50;99.90
47310;DHT22;33046;52.270;6.832;2023-04-24T02:34:07;13.60;99.90
47310;DHT22;33046;52.270;6.832;2023-04-24T02:36:14;13.60;99.90
47310;DHT22;33046;52.270;6.832;2023-04-24T02:38:21;13.50;99.90
47310;DHT22;33046;52.270;6.832;2023-04-24T02:40:28;13.60;99.90
47310;DHT22;33046;52.270;6.832;2023-04-24T02:42:34;13.50;99.90
47310;DHT22;33046;52.270;6.832;2023-04-24T02:44:41;13.50;99.90
47310;DHT22;33046;52.270;6.832;2023-04-24T02:46:49;13.50;99.90
47310;DHT22;33046;52.270;6.832;2023-04-24T02:48:56;13.50;99.90
47310;DHT22;33046;52.270;6.832;2023-04-24T02:51:03;13.50;99.90
47310;DHT22;33046;52.270;6.832;2023-04-24T02:53:10;13.50;99.90
47310;DHT22;33046;52.270;6.832;2023-04-24T02:55:17;13.40;99.90
47310;DHT22;33046;52.270;6.832;2023-04-24T02:57:24;13.50;99.90
47310;DHT22;33046;52.270;6.832;2023-04-24T02:59:31;13.50;99.90
47310;DHT22;33046;52.270;6.832;2023-04-24T03:01:37;13.50;99.90
47310;DHT22;33046;52.270;6.832;2023-04-24T03:03:46;13.40;99.90
47310;DHT22;33046;52.270;6.832;2023-04-24T03:05:53;13.40;99.90
47310;DHT22;33046;52.270;6.832;2023-04-24T03:07:59;13.40;99.90
47310;DHT22;33046;52.270;6.832;2023-04-24T03:10:07;13.30;99.90
47310;DHT22;33046;52.270;6.832;2023-04-24T03:12:14;13.40;99.90
47310;DHT22;33046;52.270;6.832;2023-04-24T03:14:21;13.30;99.90
47310;DHT22;33046;52.270;6.832;2023-04-24T03:16:28;13.30;99.90
47310;DHT22;33046;52.270;6.832;2023-04-24T03:18:34;13.30;99.90
47310;DHT22;33046;52.270;6.832;2023-04-24T03:20:45;13.30;99.90
47310;DHT22;33046;52.270;6.832;2023-04-24T03:22:53;13.40;99.90
47310;DHT22;33046;52.270;6.832;2023-04-24T03:25:00;13.30;99.90
47310;DHT22;33046;52.270;6.832;2023-04-24T03:27:07;13.30;99.90
47310;DHT22;33046;52.270;6.832;2023-04-24T03:29:33;13.30;99.90
47310;DHT22;33046;52.270;6.832;2023-04-24T03:31:39;13.30;99.90
47310;DHT22;33046;52.270;6.832;2023-04-24T03:33:46;13.30;99.90
47310;DHT22;33046;52.270;6.832;2023-04-24T03:35:54;13.30;99.90
47310;DHT22;33046;52.270;6.832;2023-04-24T03:38:01;13.20;99.90
47310;DHT22;33046;52.270;6.832;2023-04-24T03:40:17;13.20;99.90
47310;DHT22;33046;52.270;6.832;2023-04-24T03:42:24;13.20;99.90
47310;DHT22;33046;52.270;6.832;2023-04-24T03:44:34;13.20;99.90
47310;DHT22;33046;52.270;6.832;2023-04-24T03:46:41;13.20;99.90
47310;DHT22;33046;52.270;6.832;2023-04-24T03:48:48;13.20;99.90
47310;DHT22;33046;52.270;6.832;2023-04-24T03:50:59;13.20;99.90
47310;DHT22;33046;52.270;6.832;2023-04-24T03:53:08;13.10;99.90
47310;DHT22;33046;52.270;6.832;2023-04-24T03:55:18;13.10;99.90
47310;DHT22;33046;52.270;6.832;2023-04-24T03:57:27;13.20;99.90
47310;DHT22;33046;52.270;6.832;2023-04-24T03:59:46;13.10;99.90
47310;DHT22;33046;52.270;6.832;2023-04-24T04:01:57;13.10;99.90
47310;DHT22;33046;52.270;6.832;2023-04-24T04:04:04;13.10;99.90
47310;DHT22;33046;52.270;6.832;2023-04-24T04:06:12;13.10;99.90
47310;DHT22;33046;52.270;6.832;2023-04-24T04:08:20;13.10;99.90
47310;DHT22;33046;52.270;6.832;2023-04-24T04:10:27;13.10;99.90
47310;DHT22;33046;52.270;6.832;2023-04-24T04:12:34;13.10;99.90
47310;DHT22;33046;52.270;6.832;2023-04-24T04:14:41;13.10;99.90
47310;DHT22;33046;52.270;6.832;2023-04-24T04:16:48;13.10;99.90
47310;DHT22;33046;52.270;6.832;2023-04-24T04:18:55;13.10;99.90
47310;DHT22;33046;52.270;6.832;2023-04-24T04:21:02;13.10;99.90
47310;DHT22;33046;52.270;6.832;2023-04-24T04:23:10;13.10;99.90
47310;DHT22;33046;52.270;6.832;2023-04-24T04:25:41;13.10;99.90
47310;DHT22;33046;52.270;6.832;2023-04-24T04:27:48;13.10;99.90
47310;DHT22;33046;52.270;6.832;2023-04-24T04:29:55;13.00;99.90
47310;DHT22;33046;52.270;6.832;2023-04-24T04:32:02;13.00;99.90
47310;DHT22;33046;52.270;6.832;2023-04-24T04:34:10;13.10;99.90
47310;DHT22;33046;52.270;6.832;2023-04-24T04:36:17;13.10;99.90
47310;DHT22;33046;52.270;6.832;2023-04-24T04:38:30;13.00;99.90
47310;DHT22;33046;52.270;6.832;2023-04-24T04:40:45;13.00;99.90
47310;DHT22;33046;52.270;6.832;2023-04-24T04:42:53;13.00;99.90
47310;DHT22;33046;52.270;6.832;2023-04-24T04:45:01;13.00;99.90
47310;DHT22;33046;52.270;6.832;2023-04-24T04:47:21;13.00;99.90
47310;DHT22;33046;52.270;6.832;2023-04-24T04:49:29;13.00;99.90
47310;DHT22;33046;52.270;6.832;2023-04-24T04:51:36;13.00;99.90
47310;DHT22;33046;52.270;6.832;2023-04-24T04:53:45;13.00;99.90
47310;DHT22;33046;52.270;6.832;2023-04-24T04:55:52;13.00;99.90
47310;DHT22;33046;52.270;6.832;2023-04-24T04:58:01;13.00;99.90
47310;DHT22;33046;52.270;6.832;2023-04-24T05:00:10;13.00;99.90
47310;DHT22;33046;52.270;6.832;2023-04-24T05:02:25;13.00;99.90
47310;DHT22;33046;52.270;6.832;2023-04-24T05:04:32;13.00;99.90
47310;DHT22;33046;52.270;6.832;2023-04-24T05:06:39;13.00;99.90
47310;DHT22;33046;52.270;6.832;2023-04-24T05:08:47;13.00;99.90
47310;DHT22;33046;52.270;6.832;2023-04-24T05:11:05;13.00;99.90
47310;DHT22;33046;52.270;6.832;2023-04-24T05:13:12;13.00;99.90
47310;DHT22;33046;52.270;6.832;2023-04-24T05:15:20;13.10;99.90
47310;DHT22;33046;52.270;6.832;2023-04-24T05:17:27;13.00;99.90
47310;DHT22;33046;52.270;6.832;2023-04-24T05:19:35;13.00;99.90
47310;DHT22;33046;52.270;6.832;2023-04-24T05:21:42;13.00;99.90
47310;DHT22;33046;52.270;6.832;2023-04-24T05:23:51;13.00;99.90
47310;DHT22;33046;52.270;6.832;2023-04-24T05:26:11;13.00;99.90
47310;DHT22;33046;52.270;6.832;2023-04-24T05:28:18;13.00;99.90
47310;DHT22;33046;52.270;6.832;2023-04-24T05:30:31;13.00;99.90
47310;DHT22;33046;52.270;6.832;2023-04-24T05:32:38;13.00;99.90
47310;DHT22;33046;52.270;6.832;2023-04-24T05:34:45;13.00;99.90
47310;DHT22;33046;52.270;6.832;2023-04-24T05:36:53;13.00;99.90
47310;DHT22;33046;52.270;6.832;2023-04-24T05:39:01;13.00;99.90
47310;DHT22;33046;52.270;6.832;2023-04-24T05:41:08;13.00;99.90
47310;DHT22;33046;52.270;6.832;2023-04-24T05:43:15;13.10;99.90
47310;DHT22;33046;52.270;6.832;2023-04-24T05:45:22;13.10;99.90
47310;DHT22;33046;52.270;6.832;2023-04-24T05:47:29;13.10;99.90
47310;DHT22;33046;52.270;6.832;2023-04-24T05:49:36;13.10;99.90
47310;DHT22;33046;52.270;6.832;2023-04-24T05:51:44;13.10;99.90
47310;DHT22;33046;52.270;6.832;2023-04-24T05:53:51;13.10;99.90
47310;DHT22;33046;52.270;6.832;2023-04-24T05:56:00;13.10;99.90
47310;DHT22;33046;52.270;6.832;2023-04-24T05:58:07;13.10;99.90
47310;DHT22;33046;52.270;6.832;2023-04-24T06:00:15;13.20;99.90
47310;DHT22;33046;52.270;6.832;2023-04-24T06:02:29;13.20;99.90
47310;DHT22;33046;52.270;6.832;2023-04-24T06:04:36;13.20;99.90
47310;DHT22;33046;52.270;6.832;2023-04-24T06:06:43;13.20;99.90
47310;DHT22;33046;52.270;6.832;2023-04-24T06:08:50;13.20;99.90
47310;DHT22;33046;52.270;6.832;2023-04-24T06:10:57;13.30;99.90
47310;DHT22;33046;52.270;6.832;2023-04-24T06:13:05;13.20;99.90
47310;DHT22;33046;52.270;6.832;2023-04-24T06:15:15;13.30;99.90
47310;DHT22;33046;52.270;6.832;2023-04-24T06:17:40;13.30;99.90
47310;DHT22;33046;52.270;6.832;2023-04-24T06:19:47;13.30;99.90
47310;DHT22;33046;52.270;6.832;2023-04-24T06:21:55;13.30;99.90
47310;DHT22;33046;52.270;6.832;2023-04-24T06:24:03;13.30;99.90
47310;DHT22;33046;52.270;6.832;2023-04-24T06:26:10;13.30;99.90
47310;DHT22;33046;52.270;6.832;2023-04-24T06:28:19;13.30;99.90
47310;DHT22;33046;52.270;6.832;2023-04-24T06:30:26;13.30;99.90
47310;DHT22;33046;52.270;6.832;2023-04-24T06:32:32;13.30;99.90
47310;DHT22;33046;52.270;6.832;2023-04-24T06:34:39;13.30;99.90
47310;DHT22;33046;52.270;6.832;2023-04-24T06:36:46;13.30;99.90
47310;DHT22;33046;52.270;6.832;2023-04-24T06:38:54;13.40;99.90
47310;DHT22;33046;52.270;6.832;2023-04-24T06:41:00;13.40;99.90
47310;DHT22;33046;52.270;6.832;2023-04-24T06:43:07;13.40;99.90
47310;DHT22;33046;52.270;6.832;2023-04-24T06:45:15;13.40;99.90
47310;DHT22;33046;52.270;6.832;2023-04-24T06:47:22;13.40;99.90
47310;DHT22;33046;52.270;6.832;2023-04-24T06:49:29;13.40;99.90
47310;DHT22;33046;52.270;6.832;2023-04-24T06:51:36;13.40;99.90
47310;DHT22;33046;52.270;6.832;2023-04-24T06:53:43;13.30;99.90
47310;DHT22;33046;52.270;6.832;2023-04-24T06:55:49;13.40;99.90
47310;DHT22;33046;52.270;6.832;2023-04-24T06:57:56;13.30;99.90
47310;DHT22;33046;52.270;6.832;2023-04-24T07:00:04;13.30;99.90
47310;DHT22;33046;52.270;6.832;2023-04-24T07:02:12;13.20;99.90
47310;DHT22;33046;52.270;6.832;2023-04-24T07:04:19;13.20;99.90
47310;DHT22;33046;52.270;6.832;2023-04-24T07:06:26;13.20;99.90
47310;DHT22;33046;52.270;6.832;2023-04-24T07:08:32;13.20;99.90
47310;DHT22;33046;52.270;6.832;2023-04-24T07:10:39;13.20;99.90
47310;DHT22;33046;52.270;6.832;2023-04-24T07:12:46;13.10;99.90
47310;DHT22;33046;52.270;6.832;2023-04-24T07:14:53;13.20;99.90
47310;DHT22;33046;52.270;6.832;2023-04-24T07:16:59;13.10;99.90
47310;DHT22;33046;52.270;6.832;2023-04-24T07:19:08;13.10;99.90
47310;DHT22;33046;52.270;6.832;2023-04-24T07:21:15;13.10;99.90
47310;DHT22;33046;52.270;6.832;2023-04-24T07:23:21;13.00;99.90
47310;DHT22;33046;52.270;6.832;2023-04-24T07:25:28;13.00;99.90
47310;DHT22;33046;52.270;6.832;2023-04-24T07:27:35;13.00;99.90
47310;DHT22;33046;52.270;6.832;2023-04-24T07:29:42;13.00;99.90
47310;DHT22;33046;52.270;6.832;2023-04-24T07:31:49;12.90;99.90
47310;DHT22;33046;52.270;6.832;2023-04-24T07:33:56;13.00;99.90
47310;DHT22;33046;52.270;6.832;2023-04-24T07:36:05;12.90;99.90
47310;DHT22;33046;52.270;6.832;2023-04-24T07:38:11;13.00;99.90
47310;DHT22;33046;52.270;6.832;2023-04-24T07:40:18;13.00;99.90
47310;DHT22;33046;52.270;6.832;2023-04-24T07:42:25;13.00;99.90
47310;DHT22;33046;52.270;6.832;2023-04-24T07:44:32;13.00;99.90
47310;DHT22;33046;52.270;6.832;2023-04-24T07:46:39;13.00;99.90
47310;DHT22;33046;52.270;6.832;2023-04-24T07:48:46;12.90;99.90
47310;DHT22;33046;52.270;6.832;2023-04-24T07:50:54;12.90;99.90
47310;DHT22;33046;52.270;6.832;2023-04-24T07:53:02;12.90;99.90
47310;DHT22;33046;52.270;6.832;2023-04-24T07:55:08;12.90;99.90
47310;DHT22;33046;52.270;6.832;2023-04-24T07:57:15;12.90;99.90
47310;DHT22;33046;52.270;6.832;2023-04-24T07:59:22;12.80;99.90
47310;DHT22;33046;52.270;6.832;2023-04-24T08:01:29;12.80;99.90
47310;DHT22;33046;52.270;6.832;2023-04-24T08:03:35;12.80;99.90
47310;DHT22;33046;52.270;6.832;2023-04-24T08:05:42;12.80;99.90
47310;DHT22;33046;52.270;6.832;2023-04-24T08:07:49;12.80;99.90
47310;DHT22;33046;52.270;6.832;2023-04-24T08:09:57;12.80;99.90
47310;DHT22;33046;52.270;6.832;2023-04-24T08:12:04;12.80;99.90
47310;DHT22;33046;52.270;6.832;2023-04-24T08:14:11;12.70;99.90
47310;DHT22;33046;52.270;6.832;2023-04-24T08:16:18;12.80;99.90
47310;DHT22;33046;52.270;6.832;2023-04-24T08:18:25;12.70;99.90
47310;DHT22;33046;52.270;6.832;2023-04-24T08:20:32;12.80;99.90
47310;DHT22;33046;52.270;6.832;2023-04-24T08:22:38;12.80;99.90
47310;DHT22;33046;52.270;6.832;2023-04-24T08:24:45;12.90;99.90
47310;DHT22;33046;52.270;6.832;2023-04-24T08:26:53;12.90;99.90
47310;DHT22;33046;52.270;6.832;2023-04-24T08:29:00;12.90;99.90
47310;DHT22;33046;52.270;6.832;2023-04-24T08:31:07;12.90;99.90
47310;DHT22;33046;52.270;6.832;2023-04-24T08:33:14;12.90;99.90
47310;DHT22;33046;52.270;6.832;2023-04-24T08:35:21;12.90;99.90
47310;DHT22;33046;52.270;6.832;2023-04-24T08:37:28;13.00;99.90
47310;DHT22;33046;52.270;6.832;2023-04-24T08:39:34;13.00;99.90
47310;DHT22;33046;52.270;6.832;2023-04-24T08:41:42;13.00;99.90
47310;DHT22;33046;52.270;6.832;2023-04-24T08:43:51;13.00;99.90
47310;DHT22;33046;52.270;6.832;2023-04-24T08:45:57;13.00;99.90
47310;DHT22;33046;52.270;6.832;2023-04-24T08:48:04;13.10;99.90
47310;DHT22;33046;52.270;6.832;2023-04-24T08:50:15;13.00;99.90
47310;DHT22;33046;52.270;6.832;2023-04-24T08:52:21;13.00;99.90
47310;DHT22;33046;52.270;6.832;2023-04-24T08:54:29;13.10;99.90
47310;DHT22;33046;52.270;6.832;2023-04-24T08:56:37;13.10;99.90
47310;DHT22;33046;52.270;6.832;2023-04-24T08:58:44;13.10;99.90
47310;DHT22;33046;52.270;6.832;2023-04-24T09:00:53;13.10;99.90
47310;DHT22;33046;52.270;6.832;2023-04-24T09:03:01;13.10;99.90
47310;DHT22;33046;52.270;6.832;2023-04-24T09:05:08;13.10;99.90
47310;DHT22;33046;52.270;6.832;2023-04-24T09:07:16;13.00;99.90
47310;DHT22;33046;52.270;6.832;2023-04-24T09:09:25;13.00;99.90
47310;DHT22;33046;52.270;6.832;2023-04-24T09:11:32;13.00;99.90
47310;DHT22;33046;52.270;6.832;2023-04-24T09:13:39;13.00;99.90
47310;DHT22;33046;52.270;6.832;2023-04-24T09:15:46;13.00;99.90
47310;DHT22;33046;52.270;6.832;2023-04-24T09:17:55;13.00;99.90
47310;DHT22;33046;52.270;6.832;2023-04-24T09:20:02;13.00;99.90
47310;DHT22;33046;52.270;6.832;2023-04-24T09:22:09;13.00;99.90
47310;DHT22;33046;52.270;6.832;2023-04-24T09:24:19;12.90;99.90
47310;DHT22;33046;52.270;6.832;2023-04-24T09:26:26;12.90;99.90
47310;DHT22;33046;52.270;6.832;2023-04-24T09:28:36;12.90;99.90
47310;DHT22;33046;52.270;6.832;2023-04-24T09:30:43;12.80;99.90
47310;DHT22;33046;52.270;6.832;2023-04-24T09:33:10;12.70;99.90
47310;DHT22;33046;52.270;6.832;2023-04-24T09:35:17;12.60;99.90
47310;DHT22;33046;52.270;6.832;2023-04-24T09:37:28;12.40;99.90
47310;DHT22;33046;52.270;6.832;2023-04-24T09:39:35;12.40;99.90
47310;DHT22;33046;52.270;6.832;2023-04-24T09:41:46;12.30;99.90
47310;DHT22;33046;52.270;6.832;2023-04-24T09:43:54;12.30;99.90
47310;DHT22;33046;52.270;6.832;2023-04-24T09:46:05;12.30;99.90
47310;DHT22;33046;52.270;6.832;2023-04-24T09:48:13;12.30;99.90
47310;DHT22;33046;52.270;6.832;2023-04-24T09:50:19;12.30;99.90
47310;DHT22;33046;52.270;6.832;2023-04-24T09:52:26;12.30;99.90
47310;DHT22;33046;52.270;6.832;2023-04-24T09:54:33;12.40;99.90
47310;DHT22;33046;52.270;6.832;2023-04-24T09:56:43;12.30;99.90
47310;DHT22;33046;52.270;6.832;2023-04-24T09:58:49;12.30;99.90
47310;DHT22;33046;52.270;6.832;2023-04-24T10:00:56;12.30;99.90
47310;DHT22;33046;52.270;6.832;2023-04-24T10:03:04;12.30;99.90
47310;DHT22;33046;52.270;6.832;2023-04-24T10:05:13;12.40;99.90
47310;DHT22;33046;52.270;6.832;2023-04-24T10:07:20;12.30;99.90
47310;DHT22;33046;52.270;6.832;2023-04-24T10:09:26;12.30;99.90
47310;DHT22;33046;52.270;6.832;2023-04-24T10:11:34;12.30;99.90
47310;DHT22;33046;52.270;6.832;2023-04-24T10:13:41;12.40;99.90
47310;DHT22;33046;52.270;6.832;2023-04-24T10:15:49;12.40;99.90
47310;DHT22;33046;52.270;6.832;2023-04-24T10:17:57;12.50;99.90
47310;DHT22;33046;52.270;6.832;2023-04-24T10:20:05;12.50;99.90
47310;DHT22;33046;52.270;6.832;2023-04-24T10:22:14;12.60;99.90
47310;DHT22;33046;52.270;6.832;2023-04-24T10:24:21;12.50;99.90
47310;DHT22;33046;52.270;6.832;2023-04-24T10:26:28;12.50;99.90
47310;DHT22;33046;52.270;6.832;2023-04-24T10:28:36;12.50;99.90
47310;DHT22;33046;52.270;6.832;2023-04-24T10:30:43;12.60;99.90
47310;DHT22;33046;52.270;6.832;2023-04-24T10:32:50;12.60;99.90
47310;DHT22;33046;52.270;6.832;2023-04-24T10:34:56;12.70;99.90
47310;DHT22;33046;52.270;6.832;2023-04-24T10:37:03;12.70;99.90
47310;DHT22;33046;52.270;6.832;2023-04-24T10:39:13;12.70;99.90
47310;DHT22;33046;52.270;6.832;2023-04-24T10:41:21;12.70;99.90
47310;DHT22;33046;52.270;6.832;2023-04-24T10:43:28;12.70;99.90
47310;DHT22;33046;52.270;6.832;2023-04-24T10:45:35;12.60;99.90
47310;DHT22;33046;52.270;6.832;2023-04-24T10:47:41;12.70;99.90
47310;DHT22;33046;52.270;6.832;2023-04-24T10:49:50;12.60;99.90
47310;DHT22;33046;52.270;6.832;2023-04-24T10:52:00;12.60;99.90
47310;DHT22;33046;52.270;6.832;2023-04-24T10:54:23;12.60;99.90
47310;DHT22;33046;52.270;6.832;2023-04-24T10:56:33;12.50;99.90
47310;DHT22;33046;52.270;6.832;2023-04-24T10:58:42;12.50;99.90
47310;DHT22;33046;52.270;6.832;2023-04-24T11:00:56;12.40;99.90
47310;DHT22;33046;52.270;6.832;2023-04-24T11:03:05;12.40;99.90
47310;DHT22;33046;52.270;6.832;2023-04-24T11:05:14;12.50;99.90
47310;DHT22;33046;52.270;6.832;2023-04-24T11:07:21;12.50;99.90
47310;DHT22;33046;52.270;6.832;2023-04-24T11:09:31;12.40;99.90
47310;DHT22;33046;52.270;6.832;2023-04-24T11:11:38;12.50;99.90
47310;DHT22;33046;52.270;6.832;2023-04-24T11:14:07;12.60;99.90
47310;DHT22;33046;52.270;6.832;2023-04-24T11:16:15;12.60;99.90
47310;DHT22;33046;52.270;6.832;2023-04-24T11:18:22;12.70;99.90
47310;DHT22;33046;52.270;6.832;2023-04-24T11:20:29;12.70;99.90
47310;DHT22;33046;52.270;6.832;2023-04-24T11:22:38;12.80;99.90
47310;DHT22;33046;52.270;6.832;2023-04-24T11:24:50;12.90;99.90
47310;DHT22;33046;52.270;6.832;2023-04-24T11:27:11;12.90;99.90
47310;DHT22;33046;52.270;6.832;2023-04-24T11:29:20;12.90;99.90
47310;DHT22;33046;52.270;6.832;2023-04-24T11:31:37;12.90;99.90
47310;DHT22;33046;52.270;6.832;2023-04-24T11:33:44;12.90;99.90
47310;DHT22;33046;52.270;6.832;2023-04-24T11:35:51;12.80;99.90
47310;DHT22;33046;52.270;6.832;2023-04-24T11:37:58;12.80;99.90
47310;DHT22;33046;52.270;6.832;2023-04-24T11:40:11;12.70;99.90
47310;DHT22;33046;52.270;6.832;2023-04-24T11:42:18;12.80;99.90
47310;DHT22;33046;52.270;6.832;2023-04-24T11:44:26;12.80;99.90
47310;DHT22;33046;52.270;6.832;2023-04-24T11:46:33;12.80;99.90
47310;DHT22;33046;52.270;6.832;2023-04-24T11:48:45;12.90;99.90
47310;DHT22;33046;52.270;6.832;2023-04-24T11:50:52;12.90;99.90
47310;DHT22;33046;52.270;6.832;2023-04-24T11:52:58;12.80;99.90
47310;DHT22;33046;52.270;6.832;2023-04-24T11:55:09;12.70;99.90
47310;DHT22;33046;52.270;6.832;2023-04-24T11:57:29;12.70;99.90
47310;DHT22;33046;52.270;6.832;2023-04-24T11:59:36;12.80;99.90
47310;DHT22;33046;52.270;6.832;2023-04-24T12:01:43;12.70;99.90
47310;DHT22;33046;52.270;6.832;2023-04-24T12:03:51;12.70;99.70
47310;DHT22;33046;52.270;6.832;2023-04-24T12:06:06;12.60;99.30
47310;DHT22;33046;52.270;6.832;2023-04-24T12:08:27;12.70;99.10
47310;DHT22;33046;52.270;6.832;2023-04-24T12:10:35;12.70;99.00
47310;DHT22;33046;52.270;6.832;2023-04-24T12:12:42;12.70;99.20
47310;DHT22;33046;52.270;6.832;2023-04-24T12:14:53;12.90;99.10
47310;DHT22;33046;52.270;6.832;2023-04-24T12:17:03;12.90;98.80
47310;DHT22;33046;52.270;6.832;2023-04-24T12:19:09;13.00;98.50
47310;DHT22;33046;52.270;6.832;2023-04-24T12:21:20;12.90;98.50
47310;DHT22;33046;52.270;6.832;2023-04-24T12:23:34;12.90;98.30
47310;DHT22;33046;52.270;6.832;2023-04-24T12:25:43;13.00;97.80
47310;DHT22;33046;52.270;6.832;2023-04-24T12:27:53;13.00;98.10
47310;DHT22;33046;52.270;6.832;2023-04-24T12:30:02;13.00;98.00
47310;DHT22;33046;52.270;6.832;2023-04-24T12:32:16;13.10;98.10
47310;DHT22;33046;52.270;6.832;2023-04-24T12:34:23;13.10;97.80
47310;DHT22;33046;52.270;6.832;2023-04-24T12:36:30;13.00;97.90
47310;DHT22;33046;52.270;6.832;2023-04-24T12:38:38;13.00;97.50
47310;DHT22;33046;52.270;6.832;2023-04-24T12:40:46;13.00;97.40
47310;DHT22;33046;52.270;6.832;2023-04-24T12:42:53;13.10;97.70
47310;DHT22;33046;52.270;6.832;2023-04-24T12:45:02;13.20;97.60
47310;DHT22;33046;52.270;6.832;2023-04-24T12:47:09;13.30;97.80
47310;DHT22;33046;52.270;6.832;2023-04-24T12:49:16;13.40;98.00
47310;DHT22;33046;52.270;6.832;2023-04-24T12:51:24;13.50;98.20
47310;DHT22;33046;52.270;6.832;2023-04-24T12:53:30;13.70;97.90
47310;DHT22;33046;52.270;6.832;2023-04-24T12:55:37;13.80;97.80
47310;DHT22;33046;52.270;6.832;2023-04-24T12:57:45;13.80;97.90
47310;DHT22;33046;52.270;6.832;2023-04-24T12:59:54;13.80;97.70
47310;DHT22;33046;52.270;6.832;2023-04-24T13:02:00;13.80;97.30
47310;DHT22;33046;52.270;6.832;2023-04-24T13:04:07;13.70;97.40
47310;DHT22;33046;52.270;6.832;2023-04-24T13:06:14;13.70;97.50
47310;DHT22;33046;52.270;6.832;2023-04-24T13:08:21;13.60;97.30
47310;DHT22;33046;52.270;6.832;2023-04-24T13:10:28;13.50;97.40
47310;DHT22;33046;52.270;6.832;2023-04-24T13:12:35;13.50;97.30
47310;DHT22;33046;52.270;6.832;2023-04-24T13:14:43;13.50;97.10
47310;DHT22;33046;52.270;6.832;2023-04-24T13:16:50;13.40;97.10
47310;DHT22;33046;52.270;6.832;2023-04-24T13:18:57;13.10;96.60
47310;DHT22;33046;52.270;6.832;2023-04-24T13:21:03;13.10;96.10
47310;DHT22;33046;52.270;6.832;2023-04-24T13:23:10;13.10;96.70
47310;DHT22;33046;52.270;6.832;2023-04-24T13:25:17;13.20;96.70
47310;DHT22;33046;52.270;6.832;2023-04-24T13:27:24;13.20;96.90
47310;DHT22;33046;52.270;6.832;2023-04-24T13:29:31;13.30;96.90